sensor_id;sensor_type;location;lat;lon;timestamp;P1;durP1;ratioP1;P2;durP2;ratioP2
49223;SDS011;35050;51.316;5.994;2023-09-12T00:01:40;5.93;;;4.00;;
49223;SDS011;35050;51.316;5.994;2023-09-12T00:04:05;4.32;;;3.65;;
49223;SDS011;35050;51.316;5.994;2023-09-12T00:06:31;5.97;;;4.05;;
49223;SDS011;35050;51.316;5.994;2023-09-12T00:08:57;3.63;;;3.33;;
49223;SDS011;35050;51.316;5.994;2023-09-12T00:11:22;4.15;;;3.75;;
49223;SDS011;35050;51.316;5.994;2023-09-12T00:13:50;5.65;;;4.00;;
49223;SDS011;35050;51.316;5.994;2023-09-12T00:16:16;4.30;;;3.90;;
49223;SDS011;35050;51.316;5.994;2023-09-12T00:18:42;3.70;;;3.33;;
49223;SDS011;35050;51.316;5.994;2023-09-12T00:21:08;3.88;;;3.47;;
49223;SDS011;35050;51.316;5.994;2023-09-12T00:23:33;3.88;;;3.50;;
49223;SDS011;35050;51.316;5.994;2023-09-12T00:25:59;5.85;;;4.13;;
49223;SDS011;35050;51.316;5.994;2023-09-12T00:28:25;4.18;;;3.67;;
49223;SDS011;35050;51.316;5.994;2023-09-12T00:30:51;4.75;;;3.58;;
49223;SDS011;35050;51.316;5.994;2023-09-12T00:33:17;3.90;;;3.55;;
49223;SDS011;35050;51.316;5.994;2023-09-12T00:35:43;4.20;;;3.80;;
49223;SDS011;35050;51.316;5.994;2023-09-12T00:38:09;4.28;;;3.75;;
49223;SDS011;35050;51.316;5.994;2023-09-12T00:40:35;5.07;;;3.55;;
49223;SDS011;35050;51.316;5.994;2023-09-12T00:43:02;4.40;;;3.78;;
49223;SDS011;35050;51.316;5.994;2023-09-12T00:45:28;5.53;;;4.13;;
49223;SDS011;35050;51.316;5.994;2023-09-12T00:47:53;4.65;;;3.88;;
49223;SDS011;35050;51.316;5.994;2023-09-12T00:50:21;4.35;;;3.95;;
49223;SDS011;35050;51.316;5.994;2023-09-12T00:52:49;4.38;;;3.97;;
49223;SDS011;35050;51.316;5.994;2023-09-12T00:55:14;5.07;;;4.57;;
49223;SDS011;35050;51.316;5.994;2023-09-12T00:57:41;6.22;;;4.85;;
49223;SDS011;35050;51.316;5.994;2023-09-12T01:00:07;5.88;;;4.43;;
49223;SDS011;35050;51.316;5.994;2023-09-12T01:02:41;5.00;;;4.50;;
49223;SDS011;35050;51.316;5.994;2023-09-12T01:05:08;4.85;;;4.10;;
49223;SDS011;35050;51.316;5.994;2023-09-12T01:07:35;4.70;;;4.15;;
49223;SDS011;35050;51.316;5.994;2023-09-12T01:10:02;5.40;;;4.32;;
49223;SDS011;35050;51.316;5.994;2023-09-12T01:12:28;4.95;;;4.30;;
49223;SDS011;35050;51.316;5.994;2023-09-12T01:14:54;6.15;;;4.22;;
49223;SDS011;35050;51.316;5.994;2023-09-12T01:17:20;5.15;;;4.65;;
49223;SDS011;35050;51.316;5.994;2023-09-12T01:19:46;4.85;;;4.10;;
49223;SDS011;35050;51.316;5.994;2023-09-12T01:25:23;4.50;;;3.70;;
49223;SDS011;35050;51.316;5.994;2023-09-12T01:28:00;4.30;;;3.90;;
49223;SDS011;35050;51.316;5.994;2023-09-12T01:30:31;4.88;;;4.45;;
49223;SDS011;35050;51.316;5.994;2023-09-12T01:32:59;5.05;;;4.10;;
49223;SDS011;35050;51.316;5.994;2023-09-12T01:35:25;4.65;;;3.80;;
49223;SDS011;35050;51.316;5.994;2023-09-12T01:37:51;4.85;;;3.90;;
49223;SDS011;35050;51.316;5.994;2023-09-12T01:40:16;4.28;;;3.88;;
49223;SDS011;35050;51.316;5.994;2023-09-12T01:42:45;6.85;;;4.50;;
49223;SDS011;35050;51.316;5.994;2023-09-12T01:45:16;4.63;;;4.15;;
49223;SDS011;35050;51.316;5.994;2023-09-12T01:47:44;4.80;;;4.30;;
49223;SDS011;35050;51.316;5.994;2023-09-12T01:50:11;4.97;;;4.22;;
49223;SDS011;35050;51.316;5.994;2023-09-12T01:52:38;4.75;;;4.30;;
49223;SDS011;35050;51.316;5.994;2023-09-12T01:55:06;7.43;;;4.70;;
49223;SDS011;35050;51.316;5.994;2023-09-12T01:57:36;5.25;;;4.40;;
49223;SDS011;35050;51.316;5.994;2023-09-12T02:00:03;4.47;;;4.05;;
49223;SDS011;35050;51.316;5.994;2023-09-12T02:02:29;4.65;;;4.22;;
49223;SDS011;35050;51.316;5.994;2023-09-12T02:05:15;4.30;;;3.90;;
49223;SDS011;35050;51.316;5.994;2023-09-12T02:07:43;4.63;;;4.15;;
49223;SDS011;35050;51.316;5.994;2023-09-12T02:10:09;4.70;;;4.13;;
49223;SDS011;35050;51.316;5.994;2023-09-12T02:12:35;4.65;;;4.10;;
49223;SDS011;35050;51.316;5.994;2023-09-12T02:15:01;4.75;;;4.00;;
49223;SDS011;35050;51.316;5.994;2023-09-12T02:17:26;4.85;;;3.88;;
49223;SDS011;35050;51.316;5.994;2023-09-12T02:19:52;4.25;;;3.80;;
49223;SDS011;35050;51.316;5.994;2023-09-12T02:22:18;4.45;;;4.05;;
49223;SDS011;35050;51.316;5.994;2023-09-12T02:24:43;5.22;;;4.00;;
49223;SDS011;35050;51.316;5.994;2023-09-12T02:27:09;4.82;;;4.32;;
49223;SDS011;35050;51.316;5.994;2023-09-12T02:29:35;5.20;;;4.70;;
49223;SDS011;35050;51.316;5.994;2023-09-12T02:32:01;4.97;;;4.57;;
49223;SDS011;35050;51.316;5.994;2023-09-12T02:34:27;6.15;;;4.15;;
49223;SDS011;35050;51.316;5.994;2023-09-12T02:36:53;6.93;;;4.25;;
49223;SDS011;35050;51.316;5.994;2023-09-12T02:39:19;5.18;;;3.90;;
49223;SDS011;35050;51.316;5.994;2023-09-12T02:41:44;4.60;;;4.18;;
49223;SDS011;35050;51.316;5.994;2023-09-12T02:44:10;4.93;;;4.25;;
49223;SDS011;35050;51.316;5.994;2023-09-12T02:46:36;4.38;;;3.97;;
49223;SDS011;35050;51.316;5.994;2023-09-12T02:49:02;4.30;;;3.90;;
49223;SDS011;35050;51.316;5.994;2023-09-12T02:51:28;4.93;;;4.25;;
49223;SDS011;35050;51.316;5.994;2023-09-12T02:53:54;6.68;;;4.72;;
49223;SDS011;35050;51.316;5.994;2023-09-12T02:56:20;6.13;;;4.95;;
49223;SDS011;35050;51.316;5.994;2023-09-12T02:58:46;5.15;;;4.40;;
49223;SDS011;35050;51.316;5.994;2023-09-12T03:01:19;6.20;;;4.65;;
49223;SDS011;35050;51.316;5.994;2023-09-12T03:06:12;4.60;;;3.75;;
49223;SDS011;35050;51.316;5.994;2023-09-12T03:08:39;4.93;;;4.30;;
49223;SDS011;35050;51.316;5.994;2023-09-12T03:11:05;5.20;;;4.70;;
49223;SDS011;35050;51.316;5.994;2023-09-12T03:13:32;5.55;;;4.68;;
49223;SDS011;35050;51.316;5.994;2023-09-12T03:15:58;4.97;;;4.25;;
49223;SDS011;35050;51.316;5.994;2023-09-12T03:18:25;5.45;;;4.50;;
49223;SDS011;35050;51.316;5.994;2023-09-12T03:20:50;5.55;;;4.35;;
49223;SDS011;35050;51.316;5.994;2023-09-12T03:23:16;5.05;;;4.57;;
49223;SDS011;35050;51.316;5.994;2023-09-12T03:25:42;4.82;;;3.80;;
49223;SDS011;35050;51.316;5.994;2023-09-12T03:28:07;6.43;;;3.83;;
49223;SDS011;35050;51.316;5.994;2023-09-12T03:30:33;4.95;;;4.40;;
49223;SDS011;35050;51.316;5.994;2023-09-12T03:33:01;6.82;;;4.53;;
49223;SDS011;35050;51.316;5.994;2023-09-12T03:35:28;4.90;;;4.10;;
49223;SDS011;35050;51.316;5.994;2023-09-12T03:37:54;6.22;;;4.18;;
49223;SDS011;35050;51.316;5.994;2023-09-12T03:40:19;4.97;;;4.47;;
49223;SDS011;35050;51.316;5.994;2023-09-12T03:42:45;4.85;;;4.43;;
49223;SDS011;35050;51.316;5.994;2023-09-12T03:45:11;5.22;;;4.38;;
49223;SDS011;35050;51.316;5.994;2023-09-12T03:47:37;5.03;;;3.80;;
49223;SDS011;35050;51.316;5.994;2023-09-12T03:50:02;4.38;;;3.97;;
49223;SDS011;35050;51.316;5.994;2023-09-12T03:52:29;5.32;;;4.20;;
49223;SDS011;35050;51.316;5.994;2023-09-12T03:54:55;6.20;;;4.53;;
49223;SDS011;35050;51.316;5.994;2023-09-12T03:57:20;5.70;;;4.90;;
49223;SDS011;35050;51.316;5.994;2023-09-12T03:59:46;5.97;;;4.45;;
49223;SDS011;35050;51.316;5.994;2023-09-12T04:02:12;6.30;;;4.32;;
49223;SDS011;35050;51.316;5.994;2023-09-12T04:04:38;4.63;;;4.22;;
49223;SDS011;35050;51.316;5.994;2023-09-12T04:07:04;4.75;;;4.25;;
49223;SDS011;35050;51.316;5.994;2023-09-12T04:09:30;4.72;;;4.32;;
49223;SDS011;35050;51.316;5.994;2023-09-12T04:11:56;6.00;;;4.95;;
49223;SDS011;35050;51.316;5.994;2023-09-12T04:14:21;5.10;;;4.63;;
49223;SDS011;35050;51.316;5.994;2023-09-12T04:16:47;5.88;;;4.70;;
49223;SDS011;35050;51.316;5.994;2023-09-12T04:19:13;9.55;;;4.25;;
49223;SDS011;35050;51.316;5.994;2023-09-12T04:21:39;4.78;;;4.38;;
49223;SDS011;35050;51.316;5.994;2023-09-12T04:24:05;6.85;;;4.30;;
49223;SDS011;35050;51.316;5.994;2023-09-12T04:26:31;4.80;;;4.40;;
49223;SDS011;35050;51.316;5.994;2023-09-12T04:28:57;6.60;;;4.90;;
49223;SDS011;35050;51.316;5.994;2023-09-12T04:31:23;6.20;;;4.80;;
49223;SDS011;35050;51.316;5.994;2023-09-12T04:33:50;4.75;;;3.78;;
49223;SDS011;35050;51.316;5.994;2023-09-12T04:36:17;4.80;;;4.40;;
49223;SDS011;35050;51.316;5.994;2023-09-12T04:38:42;4.85;;;4.35;;
49223;SDS011;35050;51.316;5.994;2023-09-12T04:41:08;5.45;;;4.40;;
49223;SDS011;35050;51.316;5.994;2023-09-12T04:43:34;5.60;;;5.10;;
49223;SDS011;35050;51.316;5.994;2023-09-12T04:46:00;9.93;;;6.50;;
49223;SDS011;35050;51.316;5.994;2023-09-12T04:48:26;5.97;;;5.32;;
49223;SDS011;35050;51.316;5.994;2023-09-12T04:50:52;5.82;;;5.20;;
49223;SDS011;35050;51.316;5.994;2023-09-12T04:53:18;6.05;;;4.97;;
49223;SDS011;35050;51.316;5.994;2023-09-12T04:55:43;5.10;;;4.40;;
49223;SDS011;35050;51.316;5.994;2023-09-12T04:58:09;8.98;;;6.68;;
49223;SDS011;35050;51.316;5.994;2023-09-12T05:00:35;5.97;;;4.97;;
49223;SDS011;35050;51.316;5.994;2023-09-12T05:03:01;6.15;;;5.28;;
49223;SDS011;35050;51.316;5.994;2023-09-12T05:05:29;5.70;;;5.10;;
49223;SDS011;35050;51.316;5.994;2023-09-12T05:07:54;8.02;;;5.75;;
49223;SDS011;35050;51.316;5.994;2023-09-12T05:10:20;6.78;;;6.05;;
49223;SDS011;35050;51.316;5.994;2023-09-12T05:12:45;6.35;;;5.25;;
49223;SDS011;35050;51.316;5.994;2023-09-12T05:15:11;6.13;;;5.53;;
49223;SDS011;35050;51.316;5.994;2023-09-12T05:17:36;6.32;;;5.45;;
49223;SDS011;35050;51.316;5.994;2023-09-12T05:20:03;6.95;;;5.63;;
49223;SDS011;35050;51.316;5.994;2023-09-12T05:22:32;7.75;;;5.70;;
49223;SDS011;35050;51.316;5.994;2023-09-12T05:24:57;6.38;;;5.15;;
49223;SDS011;35050;51.316;5.994;2023-09-12T05:27:23;6.07;;;5.47;;
49223;SDS011;35050;51.316;5.994;2023-09-12T05:29:48;6.10;;;5.50;;
49223;SDS011;35050;51.316;5.994;2023-09-12T05:32:15;8.80;;;6.22;;
49223;SDS011;35050;51.316;5.994;2023-09-12T05:34:41;8.85;;;7.15;;
49223;SDS011;35050;51.316;5.994;2023-09-12T05:37:07;7.95;;;7.10;;
49223;SDS011;35050;51.316;5.994;2023-09-12T05:39:33;8.35;;;6.35;;
49223;SDS011;35050;51.316;5.994;2023-09-12T05:41:58;8.10;;;6.60;;
49223;SDS011;35050;51.316;5.994;2023-09-12T05:44:24;6.70;;;5.97;;
49223;SDS011;35050;51.316;5.994;2023-09-12T05:46:50;7.47;;;5.82;;
49223;SDS011;35050;51.316;5.994;2023-09-12T05:49:15;7.50;;;5.97;;
49223;SDS011;35050;51.316;5.994;2023-09-12T05:51:41;6.03;;;5.38;;
49223;SDS011;35050;51.316;5.994;2023-09-12T05:54:07;6.55;;;5.53;;
49223;SDS011;35050;51.316;5.994;2023-09-12T05:56:33;7.75;;;6.18;;
49223;SDS011;35050;51.316;5.994;2023-09-12T05:58:59;8.40;;;6.70;;
49223;SDS011;35050;51.316;5.994;2023-09-12T06:01:25;10.50;;;6.05;;
49223;SDS011;35050;51.316;5.994;2023-09-12T06:03:50;7.32;;;6.07;;
49223;SDS011;35050;51.316;5.994;2023-09-12T06:06:16;6.35;;;5.75;;
49223;SDS011;35050;51.316;5.994;2023-09-12T06:08:42;8.50;;;6.47;;
49223;SDS011;35050;51.316;5.994;2023-09-12T06:11:07;7.13;;;6.43;;
49223;SDS011;35050;51.316;5.994;2023-09-12T06:13:34;8.07;;;6.55;;
49223;SDS011;35050;51.316;5.994;2023-09-12T06:16:02;9.02;;;5.85;;
49223;SDS011;35050;51.316;5.994;2023-09-12T06:18:28;7.30;;;6.50;;
49223;SDS011;35050;51.316;5.994;2023-09-12T06:20:56;7.55;;;5.80;;
49223;SDS011;35050;51.316;5.994;2023-09-12T06:23:22;7.28;;;6.35;;
49223;SDS011;35050;51.316;5.994;2023-09-12T06:25:48;6.75;;;6.07;;
49223;SDS011;35050;51.316;5.994;2023-09-12T06:28:24;6.95;;;6.25;;
49223;SDS011;35050;51.316;5.994;2023-09-12T06:30:51;7.95;;;7.00;;
49223;SDS011;35050;51.316;5.994;2023-09-12T06:33:16;7.50;;;6.45;;
49223;SDS011;35050;51.316;5.994;2023-09-12T06:35:42;6.63;;;5.85;;
49223;SDS011;35050;51.316;5.994;2023-09-12T06:38:07;8.00;;;7.20;;
49223;SDS011;35050;51.316;5.994;2023-09-12T06:40:33;8.35;;;7.13;;
49223;SDS011;35050;51.316;5.994;2023-09-12T06:42:59;8.57;;;7.68;;
49223;SDS011;35050;51.316;5.994;2023-09-12T06:45:24;11.27;;;8.73;;
49223;SDS011;35050;51.316;5.994;2023-09-12T06:47:50;7.40;;;6.70;;
49223;SDS011;35050;51.316;5.994;2023-09-12T06:50:15;8.25;;;7.43;;
49223;SDS011;35050;51.316;5.994;2023-09-12T06:52:41;8.95;;;6.85;;
49223;SDS011;35050;51.316;5.994;2023-09-12T06:55:07;6.80;;;6.10;;
49223;SDS011;35050;51.316;5.994;2023-09-12T06:57:32;7.13;;;6.40;;
49223;SDS011;35050;51.316;5.994;2023-09-12T06:59:58;9.02;;;6.65;;
49223;SDS011;35050;51.316;5.994;2023-09-12T07:02:24;10.20;;;6.90;;
49223;SDS011;35050;51.316;5.994;2023-09-12T07:04:51;8.75;;;7.85;;
49223;SDS011;35050;51.316;5.994;2023-09-12T07:07:17;8.40;;;7.47;;
49223;SDS011;35050;51.316;5.994;2023-09-12T07:09:42;9.90;;;8.25;;
49223;SDS011;35050;51.316;5.994;2023-09-12T07:12:08;9.73;;;7.88;;
49223;SDS011;35050;51.316;5.994;2023-09-12T07:14:34;7.70;;;6.75;;
49223;SDS011;35050;51.316;5.994;2023-09-12T07:17:02;8.60;;;6.75;;
49223;SDS011;35050;51.316;5.994;2023-09-12T07:19:29;8.48;;;7.57;;
49223;SDS011;35050;51.316;5.994;2023-09-12T07:21:54;10.23;;;8.30;;
49223;SDS011;35050;51.316;5.994;2023-09-12T07:24:20;9.10;;;7.43;;
49223;SDS011;35050;51.316;5.994;2023-09-12T07:26:51;9.52;;;7.90;;
49223;SDS011;35050;51.316;5.994;2023-09-12T07:29:16;8.77;;;7.30;;
49223;SDS011;35050;51.316;5.994;2023-09-12T07:31:42;10.35;;;9.25;;
49223;SDS011;35050;51.316;5.994;2023-09-12T07:34:08;11.95;;;8.32;;
49223;SDS011;35050;51.316;5.994;2023-09-12T07:36:34;9.50;;;8.50;;
49223;SDS011;35050;51.316;5.994;2023-09-12T07:39:00;9.25;;;7.47;;
49223;SDS011;35050;51.316;5.994;2023-09-12T07:41:25;10.73;;;9.52;;
49223;SDS011;35050;51.316;5.994;2023-09-12T07:43:51;11.35;;;9.82;;
49223;SDS011;35050;51.316;5.994;2023-09-12T07:46:17;11.77;;;9.20;;
49223;SDS011;35050;51.316;5.994;2023-09-12T07:48:42;9.88;;;7.80;;
49223;SDS011;35050;51.316;5.994;2023-09-12T07:51:12;11.65;;;8.52;;
49223;SDS011;35050;51.316;5.994;2023-09-12T07:53:39;9.80;;;8.80;;
49223;SDS011;35050;51.316;5.994;2023-09-12T07:56:06;7.97;;;7.18;;
49223;SDS011;35050;51.316;5.994;2023-09-12T07:58:33;13.50;;;8.55;;
49223;SDS011;35050;51.316;5.994;2023-09-12T08:00:58;11.20;;;9.43;;
49223;SDS011;35050;51.316;5.994;2023-09-12T08:03:29;11.10;;;9.30;;
49223;SDS011;35050;51.316;5.994;2023-09-12T08:05:56;10.43;;;9.32;;
49223;SDS011;35050;51.316;5.994;2023-09-12T08:08:22;12.70;;;11.20;;
49223;SDS011;35050;51.316;5.994;2023-09-12T08:10:48;11.00;;;9.75;;
49223;SDS011;35050;51.316;5.994;2023-09-12T08:13:14;9.73;;;8.73;;
49223;SDS011;35050;51.316;5.994;2023-09-12T08:15:42;12.13;;;10.02;;
49223;SDS011;35050;51.316;5.994;2023-09-12T08:18:08;14.38;;;11.63;;
49223;SDS011;35050;51.316;5.994;2023-09-12T08:20:33;12.32;;;10.45;;
49223;SDS011;35050;51.316;5.994;2023-09-12T08:22:59;11.10;;;9.98;;
49223;SDS011;35050;51.316;5.994;2023-09-12T08:25:25;13.35;;;11.43;;
49223;SDS011;35050;51.316;5.994;2023-09-12T08:27:50;12.15;;;10.80;;
49223;SDS011;35050;51.316;5.994;2023-09-12T08:30:16;15.30;;;12.07;;
49223;SDS011;35050;51.316;5.994;2023-09-12T08:32:42;15.13;;;11.90;;
49223;SDS011;35050;51.316;5.994;2023-09-12T08:35:13;14.02;;;11.57;;
49223;SDS011;35050;51.316;5.994;2023-09-12T08:37:39;12.23;;;10.90;;
49223;SDS011;35050;51.316;5.994;2023-09-12T08:40:09;12.80;;;10.57;;
49223;SDS011;35050;51.316;5.994;2023-09-12T08:42:39;12.65;;;10.75;;
49223;SDS011;35050;51.316;5.994;2023-09-12T08:45:07;11.85;;;9.85;;
49223;SDS011;35050;51.316;5.994;2023-09-12T08:47:41;12.48;;;9.85;;
49223;SDS011;35050;51.316;5.994;2023-09-12T08:50:12;11.52;;;9.98;;
49223;SDS011;35050;51.316;5.994;2023-09-12T08:52:40;10.63;;;9.32;;
49223;SDS011;35050;51.316;5.994;2023-09-12T08:55:07;13.95;;;11.80;;
49223;SDS011;35050;51.316;5.994;2023-09-12T08:57:33;11.85;;;10.30;;
49223;SDS011;35050;51.316;5.994;2023-09-12T09:00:02;12.77;;;11.13;;
49223;SDS011;35050;51.316;5.994;2023-09-12T09:02:42;11.15;;;9.98;;
49223;SDS011;35050;51.316;5.994;2023-09-12T09:05:09;12.30;;;9.52;;
49223;SDS011;35050;51.316;5.994;2023-09-12T09:07:40;11.88;;;10.55;;
49223;SDS011;35050;51.316;5.994;2023-09-12T09:10:07;11.90;;;10.13;;
49223;SDS011;35050;51.316;5.994;2023-09-12T09:12:35;10.50;;;9.50;;
49223;SDS011;35050;51.316;5.994;2023-09-12T09:17:51;10.05;;;8.55;;
49223;SDS011;35050;51.316;5.994;2023-09-12T09:20:22;9.45;;;7.68;;
49223;SDS011;35050;51.316;5.994;2023-09-12T09:22:57;9.25;;;8.00;;
49223;SDS011;35050;51.316;5.994;2023-09-12T09:25:33;9.35;;;8.18;;
49223;SDS011;35050;51.316;5.994;2023-09-12T09:28:15;11.18;;;9.68;;
49223;SDS011;35050;51.316;5.994;2023-09-12T09:30:46;14.32;;;11.02;;
49223;SDS011;35050;51.316;5.994;2023-09-12T09:33:13;12.50;;;11.18;;
49223;SDS011;35050;51.316;5.994;2023-09-12T09:35:48;11.07;;;9.90;;
49223;SDS011;35050;51.316;5.994;2023-09-12T09:38:18;11.32;;;9.95;;
49223;SDS011;35050;51.316;5.994;2023-09-12T09:40:44;10.50;;;9.40;;
49223;SDS011;35050;51.316;5.994;2023-09-12T09:43:10;13.38;;;9.38;;
49223;SDS011;35050;51.316;5.994;2023-09-12T09:45:44;10.65;;;9.45;;
49223;SDS011;35050;51.316;5.994;2023-09-12T09:48:17;11.75;;;9.98;;
49223;SDS011;35050;51.316;5.994;2023-09-12T09:50:46;11.60;;;10.40;;
49223;SDS011;35050;51.316;5.994;2023-09-12T09:53:12;11.85;;;9.70;;
49223;SDS011;35050;51.316;5.994;2023-09-12T09:55:37;11.63;;;10.43;;
49223;SDS011;35050;51.316;5.994;2023-09-12T09:58:06;10.07;;;9.02;;
49223;SDS011;35050;51.316;5.994;2023-09-12T10:00:33;10.98;;;9.70;;
49223;SDS011;35050;51.316;5.994;2023-09-12T10:03:02;11.00;;;9.23;;
49223;SDS011;35050;51.316;5.994;2023-09-12T10:05:31;10.40;;;8.82;;
49223;SDS011;35050;51.316;5.994;2023-09-12T10:07:58;12.13;;;8.88;;
49223;SDS011;35050;51.316;5.994;2023-09-12T10:10:27;10.70;;;9.10;;
49223;SDS011;35050;51.316;5.994;2023-09-12T10:12:55;10.00;;;8.85;;
49223;SDS011;35050;51.316;5.994;2023-09-12T10:15:22;9.45;;;8.45;;
49223;SDS011;35050;51.316;5.994;2023-09-12T10:17:52;9.85;;;8.77;;
49223;SDS011;35050;51.316;5.994;2023-09-12T10:20:49;9.63;;;8.48;;
49223;SDS011;35050;51.316;5.994;2023-09-12T10:25:55;8.73;;;7.60;;
49223;SDS011;35050;51.316;5.994;2023-09-12T10:28:23;12.68;;;9.10;;
49223;SDS011;35050;51.316;5.994;2023-09-12T10:30:51;10.52;;;8.57;;
49223;SDS011;35050;51.316;5.994;2023-09-12T10:33:17;10.82;;;8.77;;
49223;SDS011;35050;51.316;5.994;2023-09-12T10:35:44;10.52;;;9.20;;
49223;SDS011;35050;51.316;5.994;2023-09-12T10:38:10;12.00;;;8.80;;
49223;SDS011;35050;51.316;5.994;2023-09-12T10:40:39;11.27;;;8.40;;
49223;SDS011;35050;51.316;5.994;2023-09-12T10:43:05;8.60;;;7.78;;
49223;SDS011;35050;51.316;5.994;2023-09-12T10:45:35;9.77;;;8.77;;
49223;SDS011;35050;51.316;5.994;2023-09-12T10:48:02;12.25;;;9.57;;
49223;SDS011;35050;51.316;5.994;2023-09-12T10:50:28;9.23;;;8.32;;
49223;SDS011;35050;51.316;5.994;2023-09-12T10:52:54;10.00;;;8.32;;
49223;SDS011;35050;51.316;5.994;2023-09-12T10:55:21;10.38;;;8.20;;
49223;SDS011;35050;51.316;5.994;2023-09-12T10:57:59;10.75;;;9.63;;
49223;SDS011;35050;51.316;5.994;2023-09-12T11:00:27;10.63;;;9.52;;
49223;SDS011;35050;51.316;5.994;2023-09-12T11:02:53;11.98;;;8.45;;
49223;SDS011;35050;51.316;5.994;2023-09-12T11:07:58;9.60;;;8.68;;
49223;SDS011;35050;51.316;5.994;2023-09-12T11:10:26;9.50;;;8.50;;
49223;SDS011;35050;51.316;5.994;2023-09-12T11:12:54;9.15;;;8.18;;
49223;SDS011;35050;51.316;5.994;2023-09-12T11:15:22;9.50;;;8.43;;
49223;SDS011;35050;51.316;5.994;2023-09-12T11:18:02;9.45;;;8.27;;
49223;SDS011;35050;51.316;5.994;2023-09-12T11:20:49;9.65;;;7.82;;
49223;SDS011;35050;51.316;5.994;2023-09-12T11:23:28;8.20;;;7.40;;
49223;SDS011;35050;51.316;5.994;2023-09-12T11:26:04;9.10;;;6.85;;
49223;SDS011;35050;51.316;5.994;2023-09-12T11:28:31;8.77;;;6.22;;
49223;SDS011;35050;51.316;5.994;2023-09-12T11:30:57;8.65;;;7.45;;
49223;SDS011;35050;51.316;5.994;2023-09-12T11:33:26;8.30;;;7.50;;
49223;SDS011;35050;51.316;5.994;2023-09-12T11:35:53;10.00;;;8.13;;
49223;SDS011;35050;51.316;5.994;2023-09-12T11:38:27;8.43;;;7.50;;
49223;SDS011;35050;51.316;5.994;2023-09-12T11:40:54;7.90;;;6.38;;
49223;SDS011;35050;51.316;5.994;2023-09-12T11:43:24;7.22;;;6.53;;
49223;SDS011;35050;51.316;5.994;2023-09-12T11:45:51;7.53;;;6.72;;
49223;SDS011;35050;51.316;5.994;2023-09-12T11:48:19;7.18;;;6.47;;
49223;SDS011;35050;51.316;5.994;2023-09-12T11:50:54;8.27;;;7.10;;
49223;SDS011;35050;51.316;5.994;2023-09-12T11:53:22;9.48;;;7.18;;
49223;SDS011;35050;51.316;5.994;2023-09-12T11:55:51;7.43;;;6.63;;
49223;SDS011;35050;51.316;5.994;2023-09-12T11:58:19;8.00;;;6.78;;
49223;SDS011;35050;51.316;5.994;2023-09-12T12:00:45;8.40;;;6.78;;
49223;SDS011;35050;51.316;5.994;2023-09-12T12:03:19;6.80;;;6.10;;
49223;SDS011;35050;51.316;5.994;2023-09-12T12:05:46;6.70;;;6.07;;
49223;SDS011;35050;51.316;5.994;2023-09-12T12:08:13;7.15;;;5.95;;
49223;SDS011;35050;51.316;5.994;2023-09-12T12:10:39;8.43;;;5.68;;
49223;SDS011;35050;51.316;5.994;2023-09-12T12:13:06;5.88;;;5.38;;
49223;SDS011;35050;51.316;5.994;2023-09-12T12:15:42;5.55;;;5.03;;
49223;SDS011;35050;51.316;5.994;2023-09-12T12:18:07;5.90;;;4.93;;
49223;SDS011;35050;51.316;5.994;2023-09-12T12:20:33;6.10;;;5.50;;
49223;SDS011;35050;51.316;5.994;2023-09-12T12:22:59;5.55;;;4.97;;
49223;SDS011;35050;51.316;5.994;2023-09-12T12:25:24;6.60;;;5.55;;
49223;SDS011;35050;51.316;5.994;2023-09-12T12:27:50;7.78;;;5.82;;
49223;SDS011;35050;51.316;5.994;2023-09-12T12:30:17;5.75;;;5.20;;
49223;SDS011;35050;51.316;5.994;2023-09-12T12:32:46;6.05;;;5.07;;
49223;SDS011;35050;51.316;5.994;2023-09-12T12:35:19;7.15;;;6.30;;
49223;SDS011;35050;51.316;5.994;2023-09-12T12:37:47;6.43;;;5.63;;
49223;SDS011;35050;51.316;5.994;2023-09-12T12:40:14;6.97;;;6.13;;
49223;SDS011;35050;51.316;5.994;2023-09-12T12:42:40;6.32;;;5.50;;
49223;SDS011;35050;51.316;5.994;2023-09-12T12:45:16;7.38;;;5.50;;
49223;SDS011;35050;51.316;5.994;2023-09-12T12:47:43;5.68;;;5.15;;
49223;SDS011;35050;51.316;5.994;2023-09-12T12:52:39;5.63;;;5.07;;
49223;SDS011;35050;51.316;5.994;2023-09-12T12:55:05;6.00;;;4.60;;
49223;SDS011;35050;51.316;5.994;2023-09-12T12:57:32;6.03;;;5.00;;
49223;SDS011;35050;51.316;5.994;2023-09-12T13:00:08;5.38;;;4.88;;
49223;SDS011;35050;51.316;5.994;2023-09-12T13:02:36;6.63;;;4.97;;
49223;SDS011;35050;51.316;5.994;2023-09-12T13:05:02;6.78;;;4.90;;
49223;SDS011;35050;51.316;5.994;2023-09-12T13:07:28;4.70;;;4.30;;
49223;SDS011;35050;51.316;5.994;2023-09-12T13:09:54;5.43;;;4.82;;
49223;SDS011;35050;51.316;5.994;2023-09-12T13:12:19;5.90;;;5.35;;
49223;SDS011;35050;51.316;5.994;2023-09-12T13:14:45;5.28;;;4.63;;
49223;SDS011;35050;51.316;5.994;2023-09-12T13:17:12;5.95;;;4.78;;
49223;SDS011;35050;51.316;5.994;2023-09-12T13:19:37;5.15;;;4.47;;
49223;SDS011;35050;51.316;5.994;2023-09-12T13:22:03;4.25;;;3.83;;
49223;SDS011;35050;51.316;5.994;2023-09-12T13:24:29;4.97;;;4.05;;
49223;SDS011;35050;51.316;5.994;2023-09-12T13:26:54;3.92;;;3.53;;
49223;SDS011;35050;51.316;5.994;2023-09-12T13:29:20;4.72;;;3.80;;
49223;SDS011;35050;51.316;5.994;2023-09-12T13:31:45;5.75;;;4.65;;
49223;SDS011;35050;51.316;5.994;2023-09-12T13:34:11;6.80;;;4.25;;
49223;SDS011;35050;51.316;5.994;2023-09-12T13:36:37;4.68;;;4.00;;
49223;SDS011;35050;51.316;5.994;2023-09-12T13:39:02;6.03;;;4.05;;
49223;SDS011;35050;51.316;5.994;2023-09-12T13:41:29;4.75;;;3.60;;
49223;SDS011;35050;51.316;5.994;2023-09-12T13:43:54;4.10;;;3.67;;
49223;SDS011;35050;51.316;5.994;2023-09-12T13:46:20;4.28;;;3.70;;
49223;SDS011;35050;51.316;5.994;2023-09-12T13:48:46;4.25;;;3.80;;
49223;SDS011;35050;51.316;5.994;2023-09-12T13:51:11;4.00;;;3.65;;
49223;SDS011;35050;51.316;5.994;2023-09-12T13:53:38;3.55;;;3.25;;
49223;SDS011;35050;51.316;5.994;2023-09-12T13:56:04;4.45;;;3.90;;
49223;SDS011;35050;51.316;5.994;2023-09-12T13:58:31;7.35;;;3.47;;
49223;SDS011;35050;51.316;5.994;2023-09-12T14:00:58;4.50;;;3.80;;
49223;SDS011;35050;51.316;5.994;2023-09-12T14:03:23;3.63;;;3.30;;
49223;SDS011;35050;51.316;5.994;2023-09-12T14:05:49;4.07;;;3.50;;
49223;SDS011;35050;51.316;5.994;2023-09-12T14:08:15;3.97;;;3.65;;
49223;SDS011;35050;51.316;5.994;2023-09-12T14:10:41;4.30;;;3.90;;
49223;SDS011;35050;51.316;5.994;2023-09-12T14:13:07;4.70;;;3.55;;
49223;SDS011;35050;51.316;5.994;2023-09-12T14:15:33;3.97;;;3.38;;
49223;SDS011;35050;51.316;5.994;2023-09-12T14:17:59;4.28;;;3.88;;
49223;SDS011;35050;51.316;5.994;2023-09-12T14:20:24;4.75;;;3.97;;
49223;SDS011;35050;51.316;5.994;2023-09-12T14:22:50;4.35;;;3.50;;
49223;SDS011;35050;51.316;5.994;2023-09-12T14:25:15;4.35;;;3.50;;
49223;SDS011;35050;51.316;5.994;2023-09-12T14:27:42;4.97;;;3.80;;
49223;SDS011;35050;51.316;5.994;2023-09-12T14:30:09;4.05;;;3.25;;
49223;SDS011;35050;51.316;5.994;2023-09-12T14:32:35;4.60;;;3.80;;
49223;SDS011;35050;51.316;5.994;2023-09-12T14:35:01;3.40;;;3.10;;
49223;SDS011;35050;51.316;5.994;2023-09-12T14:37:26;3.30;;;3.00;;
49223;SDS011;35050;51.316;5.994;2023-09-12T14:39:53;3.20;;;2.90;;
49223;SDS011;35050;51.316;5.994;2023-09-12T14:42:20;3.30;;;3.00;;
49223;SDS011;35050;51.316;5.994;2023-09-12T14:44:46;3.60;;;3.30;;
49223;SDS011;35050;51.316;5.994;2023-09-12T14:47:11;3.78;;;3.45;;
49223;SDS011;35050;51.316;5.994;2023-09-12T14:49:37;3.97;;;3.10;;
49223;SDS011;35050;51.316;5.994;2023-09-12T14:52:02;3.70;;;3.40;;
49223;SDS011;35050;51.316;5.994;2023-09-12T14:54:28;4.47;;;3.30;;
49223;SDS011;35050;51.316;5.994;2023-09-12T14:56:54;3.35;;;3.08;;
49223;SDS011;35050;51.316;5.994;2023-09-12T14:59:19;3.40;;;2.80;;